sensor_id;sensor_type;location;lat;lon;timestamp;temperature;humidity
20574;DHT22;10445;50.216;7.912;2022-08-14T00:01:50;21.50;1.00
20574;DHT22;10445;50.216;7.912;2022-08-14T00:04:41;21.50;1.00
20574;DHT22;10445;50.216;7.912;2022-08-14T00:07:32;21.60;1.00
20574;DHT22;10445;50.216;7.912;2022-08-14T00:10:29;21.50;1.00
20574;DHT22;10445;50.216;7.912;2022-08-14T00:13:38;21.40;1.00
20574;DHT22;10445;50.216;7.912;2022-08-14T00:16:29;21.40;1.00
20574;DHT22;10445;50.216;7.912;2022-08-14T00:19:31;21.20;1.00
20574;DHT22;10445;50.216;7.912;2022-08-14T00:22:20;21.00;1.00
20574;DHT22;10445;50.216;7.912;2022-08-14T00:25:29;20.90;1.00
20574;DHT22;10445;50.216;7.912;2022-08-14T00:28:28;20.70;1.00
20574;DHT22;10445;50.216;7.912;2022-08-14T00:31:22;20.50;1.00
20574;DHT22;10445;50.216;7.912;2022-08-14T00:34:32;20.40;1.00
20574;DHT22;10445;50.216;7.912;2022-08-14T00:37:33;20.30;1.00
20574;DHT22;10445;50.216;7.912;2022-08-14T00:40:22;20.20;1.00
20574;DHT22;10445;50.216;7.912;2022-08-14T00:43:21;20.10;1.00
20574;DHT22;10445;50.216;7.912;2022-08-14T00:46:17;20.10;1.00
20574;DHT22;10445;50.216;7.912;2022-08-14T00:49:19;20.00;1.00
20574;DHT22;10445;50.216;7.912;2022-08-14T00:52:13;19.90;1.00
20574;DHT22;10445;50.216;7.912;2022-08-14T00:55:06;19.80;1.00
20574;DHT22;10445;50.216;7.912;2022-08-14T00:58:00;19.80;1.00
20574;DHT22;10445;50.216;7.912;2022-08-14T01:01:19;19.80;1.00
20574;DHT22;10445;50.216;7.912;2022-08-14T01:04:08;19.80;1.00
20574;DHT22;10445;50.216;7.912;2022-08-14T01:07:20;19.70;1.00
20574;DHT22;10445;50.216;7.912;2022-08-14T01:10:09;19.70;1.00
20574;DHT22;10445;50.216;7.912;2022-08-14T01:12:58;19.70;1.00
20574;DHT22;10445;50.216;7.912;2022-08-14T01:15:50;19.60;1.00
20574;DHT22;10445;50.216;7.912;2022-08-14T01:18:48;19.60;1.00
20574;DHT22;10445;50.216;7.912;2022-08-14T01:22:01;19.60;1.00
20574;DHT22;10445;50.216;7.912;2022-08-14T01:24:58;19.60;1.00
20574;DHT22;10445;50.216;7.912;2022-08-14T01:27:49;19.50;1.00
20574;DHT22;10445;50.216;7.912;2022-08-14T01:30:44;19.50;1.00
20574;DHT22;10445;50.216;7.912;2022-08-14T01:33:35;19.40;1.00
20574;DHT22;10445;50.216;7.912;2022-08-14T01:36:52;19.40;1.00
20574;DHT22;10445;50.216;7.912;2022-08-14T01:39:43;19.40;1.00
20574;DHT22;10445;50.216;7.912;2022-08-14T01:42:32;19.30;1.00
20574;DHT22;10445;50.216;7.912;2022-08-14T01:45:24;19.30;1.00
20574;DHT22;10445;50.216;7.912;2022-08-14T01:48:17;19.30;1.00
20574;DHT22;10445;50.216;7.912;2022-08-14T01:51:07;19.30;1.00
20574;DHT22;10445;50.216;7.912;2022-08-14T01:54:07;19.20;1.00
20574;DHT22;10445;50.216;7.912;2022-08-14T01:57:02;19.20;1.00
20574;DHT22;10445;50.216;7.912;2022-08-14T01:59:55;19.20;1.00
20574;DHT22;10445;50.216;7.912;2022-08-14T02:02:44;19.20;1.00
20574;DHT22;10445;50.216;7.912;2022-08-14T02:05:39;19.20;1.00
20574;DHT22;10445;50.216;7.912;2022-08-14T02:08:30;19.10;1.00
20574;DHT22;10445;50.216;7.912;2022-08-14T02:11:23;19.10;1.00
20574;DHT22;10445;50.216;7.912;2022-08-14T02:14:13;19.10;1.00
20574;DHT22;10445;50.216;7.912;2022-08-14T02:17:17;19.10;1.40
20574;DHT22;10445;50.216;7.912;2022-08-14T02:20:09;19.00;1.90
20574;DHT22;10445;50.216;7.912;2022-08-14T02:22:58;19.00;2.80
20574;DHT22;10445;50.216;7.912;2022-08-14T02:25:47;19.00;3.40
20574;DHT22;10445;50.216;7.912;2022-08-14T02:28:41;19.00;4.00
20574;DHT22;10445;50.216;7.912;2022-08-14T02:31:48;19.00;4.90
20574;DHT22;10445;50.216;7.912;2022-08-14T02:34:44;18.90;5.30
20574;DHT22;10445;50.216;7.912;2022-08-14T02:37:33;18.90;5.10
20574;DHT22;10445;50.216;7.912;2022-08-14T02:40:34;18.80;4.60
20574;DHT22;10445;50.216;7.912;2022-08-14T02:43:24;18.80;4.40
20574;DHT22;10445;50.216;7.912;2022-08-14T02:46:32;18.70;4.50
20574;DHT22;10445;50.216;7.912;2022-08-14T02:49:28;18.70;4.80
20574;DHT22;10445;50.216;7.912;2022-08-14T02:52:20;18.70;5.50
20574;DHT22;10445;50.216;7.912;2022-08-14T02:55:29;18.70;5.60
20574;DHT22;10445;50.216;7.912;2022-08-14T02:58:19;18.50;7.40
20574;DHT22;10445;50.216;7.912;2022-08-14T03:01:18;18.40;8.90
20574;DHT22;10445;50.216;7.912;2022-08-14T03:04:17;18.30;11.70
20574;DHT22;10445;50.216;7.912;2022-08-14T03:07:08;18.10;13.80
20574;DHT22;10445;50.216;7.912;2022-08-14T03:10:03;18.00;16.30
20574;DHT22;10445;50.216;7.912;2022-08-14T03:13:13;18.00;18.70
20574;DHT22;10445;50.216;7.912;2022-08-14T03:16:08;17.90;20.00
20574;DHT22;10445;50.216;7.912;2022-08-14T03:19:12;17.80;23.60
20574;DHT22;10445;50.216;7.912;2022-08-14T03:22:05;17.70;25.60
20574;DHT22;10445;50.216;7.912;2022-08-14T03:25:06;17.70;25.70
20574;DHT22;10445;50.216;7.912;2022-08-14T03:27:57;17.70;26.50
20574;DHT22;10445;50.216;7.912;2022-08-14T03:30:50;17.60;26.10
20574;DHT22;10445;50.216;7.912;2022-08-14T03:33:41;17.70;25.80
20574;DHT22;10445;50.216;7.912;2022-08-14T03:36:30;17.70;24.80
20574;DHT22;10445;50.216;7.912;2022-08-14T03:39:39;17.70;26.00
20574;DHT22;10445;50.216;7.912;2022-08-14T03:42:33;17.50;27.00
20574;DHT22;10445;50.216;7.912;2022-08-14T03:45:24;17.40;29.50
20574;DHT22;10445;50.216;7.912;2022-08-14T03:48:21;17.30;30.00
20574;DHT22;10445;50.216;7.912;2022-08-14T03:51:17;17.20;33.90
20574;DHT22;10445;50.216;7.912;2022-08-14T03:54:06;17.20;35.30
20574;DHT22;10445;50.216;7.912;2022-08-14T03:57:02;17.10;37.30
20574;DHT22;10445;50.216;7.912;2022-08-14T03:59:52;17.20;38.60
20574;DHT22;10445;50.216;7.912;2022-08-14T04:02:42;17.20;37.90
20574;DHT22;10445;50.216;7.912;2022-08-14T04:05:33;17.30;38.30
20574;DHT22;10445;50.216;7.912;2022-08-14T04:08:37;17.30;38.10
20574;DHT22;10445;50.216;7.912;2022-08-14T04:11:29;17.40;37.90
20574;DHT22;10445;50.216;7.912;2022-08-14T04:14:18;17.40;37.80
20574;DHT22;10445;50.216;7.912;2022-08-14T04:17:11;17.50;38.30
20574;DHT22;10445;50.216;7.912;2022-08-14T04:20:02;17.50;37.60
20574;DHT22;10445;50.216;7.912;2022-08-14T04:22:52;17.50;40.00
20574;DHT22;10445;50.216;7.912;2022-08-14T04:25:42;17.40;39.30
20574;DHT22;10445;50.216;7.912;2022-08-14T04:28:32;17.50;38.20
20574;DHT22;10445;50.216;7.912;2022-08-14T04:31:43;17.50;38.70
20574;DHT22;10445;50.216;7.912;2022-08-14T04:34:54;17.50;38.90
20574;DHT22;10445;50.216;7.912;2022-08-14T04:37:43;17.60;38.70
20574;DHT22;10445;50.216;7.912;2022-08-14T04:40:53;17.60;38.70
20574;DHT22;10445;50.216;7.912;2022-08-14T04:44:02;17.60;39.30
20574;DHT22;10445;50.216;7.912;2022-08-14T04:46:51;17.60;39.30
20574;DHT22;10445;50.216;7.912;2022-08-14T04:50:00;17.60;39.30
20574;DHT22;10445;50.216;7.912;2022-08-14T04:52:50;17.50;41.60
20574;DHT22;10445;50.216;7.912;2022-08-14T04:55:43;17.50;42.30
20574;DHT22;10445;50.216;7.912;2022-08-14T04:58:38;17.40;43.50
20574;DHT22;10445;50.216;7.912;2022-08-14T05:01:31;17.30;44.80
20574;DHT22;10445;50.216;7.912;2022-08-14T05:04:26;17.30;47.50
20574;DHT22;10445;50.216;7.912;2022-08-14T05:07:16;17.30;48.50
20574;DHT22;10445;50.216;7.912;2022-08-14T05:10:25;17.40;47.80
20574;DHT22;10445;50.216;7.912;2022-08-14T05:13:19;17.40;49.10
20574;DHT22;10445;50.216;7.912;2022-08-14T05:16:16;17.40;49.00
20574;DHT22;10445;50.216;7.912;2022-08-14T05:19:04;17.50;49.80
20574;DHT22;10445;50.216;7.912;2022-08-14T05:22:13;17.60;48.60
20574;DHT22;10445;50.216;7.912;2022-08-14T05:25:07;17.70;48.90
20574;DHT22;10445;50.216;7.912;2022-08-14T05:27:56;17.70;47.50
20574;DHT22;10445;50.216;7.912;2022-08-14T05:30:49;17.80;48.20
20574;DHT22;10445;50.216;7.912;2022-08-14T05:33:38;17.90;47.70
20574;DHT22;10445;50.216;7.912;2022-08-14T05:36:28;18.00;48.70
20574;DHT22;10445;50.216;7.912;2022-08-14T05:39:22;18.00;47.50
20574;DHT22;10445;50.216;7.912;2022-08-14T05:42:12;18.10;48.80
20574;DHT22;10445;50.216;7.912;2022-08-14T05:45:13;18.10;48.40
20574;DHT22;10445;50.216;7.912;2022-08-14T05:48:04;18.20;47.70
20574;DHT22;10445;50.216;7.912;2022-08-14T05:50:55;18.20;48.80
20574;DHT22;10445;50.216;7.912;2022-08-14T05:53:44;18.40;47.70
20574;DHT22;10445;50.216;7.912;2022-08-14T05:56:53;18.60;46.60
20574;DHT22;10445;50.216;7.912;2022-08-14T05:59:43;18.80;45.80
20574;DHT22;10445;50.216;7.912;2022-08-14T06:02:32;19.10;44.40
20574;DHT22;10445;50.216;7.912;2022-08-14T06:05:21;19.20;42.90
20574;DHT22;10445;50.216;7.912;2022-08-14T06:08:16;19.40;41.10
20574;DHT22;10445;50.216;7.912;2022-08-14T06:11:23;19.40;41.10
20574;DHT22;10445;50.216;7.912;2022-08-14T06:14:17;19.40;41.70
20574;DHT22;10445;50.216;7.912;2022-08-14T06:17:11;19.40;42.30
20574;DHT22;10445;50.216;7.912;2022-08-14T06:20:13;19.50;41.90
20574;DHT22;10445;50.216;7.912;2022-08-14T06:23:08;19.60;40.70
20574;DHT22;10445;50.216;7.912;2022-08-14T06:25:57;19.60;40.30
20574;DHT22;10445;50.216;7.912;2022-08-14T06:28:45;19.80;39.30
20574;DHT22;10445;50.216;7.912;2022-08-14T06:31:38;20.10;38.00
20574;DHT22;10445;50.216;7.912;2022-08-14T06:34:29;20.30;35.50
20574;DHT22;10445;50.216;7.912;2022-08-14T06:37:40;20.50;34.10
20574;DHT22;10445;50.216;7.912;2022-08-14T06:40:31;20.70;31.90
20574;DHT22;10445;50.216;7.912;2022-08-14T06:43:22;20.90;29.50
20574;DHT22;10445;50.216;7.912;2022-08-14T06:46:18;21.10;28.80
20574;DHT22;10445;50.216;7.912;2022-08-14T06:49:18;21.10;26.50
20574;DHT22;10445;50.216;7.912;2022-08-14T06:52:10;21.20;25.30
20574;DHT22;10445;50.216;7.912;2022-08-14T06:55:02;21.30;24.60
20574;DHT22;10445;50.216;7.912;2022-08-14T06:57:51;21.40;23.50
20574;DHT22;10445;50.216;7.912;2022-08-14T07:00:40;21.60;23.10
20574;DHT22;10445;50.216;7.912;2022-08-14T07:03:51;21.70;20.70
20574;DHT22;10445;50.216;7.912;2022-08-14T07:07:11;21.80;19.60
20574;DHT22;10445;50.216;7.912;2022-08-14T07:10:00;21.90;18.70
20574;DHT22;10445;50.216;7.912;2022-08-14T07:12:51;22.00;16.40
20574;DHT22;10445;50.216;7.912;2022-08-14T07:15:52;22.00;15.50
20574;DHT22;10445;50.216;7.912;2022-08-14T07:18:41;22.10;14.40
20574;DHT22;10445;50.216;7.912;2022-08-14T07:21:37;22.20;14.00
20574;DHT22;10445;50.216;7.912;2022-08-14T07:24:27;22.30;13.30
20574;DHT22;10445;50.216;7.912;2022-08-14T07:27:17;22.40;12.30
20574;DHT22;10445;50.216;7.912;2022-08-14T07:30:09;22.50;10.70
20574;DHT22;10445;50.216;7.912;2022-08-14T07:33:19;22.70;10.00
20574;DHT22;10445;50.216;7.912;2022-08-14T07:36:17;22.90;8.60
20574;DHT22;10445;50.216;7.912;2022-08-14T07:39:16;22.90;6.00
20574;DHT22;10445;50.216;7.912;2022-08-14T07:42:15;23.00;6.00
20574;DHT22;10445;50.216;7.912;2022-08-14T07:45:09;23.10;6.60
20574;DHT22;10445;50.216;7.912;2022-08-14T07:47:58;23.20;4.40
20574;DHT22;10445;50.216;7.912;2022-08-14T07:50:47;23.30;3.90
20574;DHT22;10445;50.216;7.912;2022-08-14T07:53:38;23.40;2.00
20574;DHT22;10445;50.216;7.912;2022-08-14T07:56:27;23.40;1.90
20574;DHT22;10445;50.216;7.912;2022-08-14T07:59:37;23.50;1.00
20574;DHT22;10445;50.216;7.912;2022-08-14T08:02:30;23.60;1.00
20574;DHT22;10445;50.216;7.912;2022-08-14T08:05:21;23.70;1.00
20574;DHT22;10445;50.216;7.912;2022-08-14T08:08:10;23.80;1.00
20574;DHT22;10445;50.216;7.912;2022-08-14T08:11:14;24.00;1.00
20574;DHT22;10445;50.216;7.912;2022-08-14T08:14:06;24.30;1.00
20574;DHT22;10445;50.216;7.912;2022-08-14T08:17:04;24.40;1.00
20574;DHT22;10445;50.216;7.912;2022-08-14T08:19:53;24.60;1.00
20574;DHT22;10445;50.216;7.912;2022-08-14T08:22:43;24.60;1.00
20574;DHT22;10445;50.216;7.912;2022-08-14T08:25:35;24.60;1.00
20574;DHT22;10445;50.216;7.912;2022-08-14T08:28:27;24.70;1.00
20574;DHT22;10445;50.216;7.912;2022-08-14T08:31:20;24.70;1.00
20574;DHT22;10445;50.216;7.912;2022-08-14T08:34:20;24.80;1.00
20574;DHT22;10445;50.216;7.912;2022-08-14T08:37:10;25.00;1.00
20574;DHT22;10445;50.216;7.912;2022-08-14T08:39:59;25.00;1.00
20574;DHT22;10445;50.216;7.912;2022-08-14T08:42:52;25.00;1.00
20574;DHT22;10445;50.216;7.912;2022-08-14T08:45:52;25.00;1.00
20574;DHT22;10445;50.216;7.912;2022-08-14T08:48:46;25.00;1.00
20574;DHT22;10445;50.216;7.912;2022-08-14T08:51:40;25.30;1.00
20574;DHT22;10445;50.216;7.912;2022-08-14T08:54:29;25.70;1.00
20574;DHT22;10445;50.216;7.912;2022-08-14T08:57:18;26.00;1.00
20574;DHT22;10445;50.216;7.912;2022-08-14T09:00:15;26.30;1.00
20574;DHT22;10445;50.216;7.912;2022-08-14T09:03:13;26.40;1.00
20574;DHT22;10445;50.216;7.912;2022-08-14T09:06:06;26.70;1.00
20574;DHT22;10445;50.216;7.912;2022-08-14T09:09:21;26.70;1.00
20574;DHT22;10445;50.216;7.912;2022-08-14T09:12:09;26.40;1.00
20574;DHT22;10445;50.216;7.912;2022-08-14T09:15:01;26.20;1.00
20574;DHT22;10445;50.216;7.912;2022-08-14T09:17:58;26.10;1.00
20574;DHT22;10445;50.216;7.912;2022-08-14T09:20:49;26.10;1.00
20574;DHT22;10445;50.216;7.912;2022-08-14T09:23:44;26.00;1.00
20574;DHT22;10445;50.216;7.912;2022-08-14T09:26:55;26.10;1.00
20574;DHT22;10445;50.216;7.912;2022-08-14T09:29:44;26.20;1.00
20574;DHT22;10445;50.216;7.912;2022-08-14T09:32:47;26.30;1.00
20574;DHT22;10445;50.216;7.912;2022-08-14T09:35:56;26.50;1.00
20574;DHT22;10445;50.216;7.912;2022-08-14T09:38:53;26.60;1.00
20574;DHT22;10445;50.216;7.912;2022-08-14T09:42:01;26.60;1.00
20574;DHT22;10445;50.216;7.912;2022-08-14T09:45:15;26.50;1.00
20574;DHT22;10445;50.216;7.912;2022-08-14T09:48:14;26.40;1.00
20574;DHT22;10445;50.216;7.912;2022-08-14T09:51:06;26.40;1.00
20574;DHT22;10445;50.216;7.912;2022-08-14T09:54:01;26.50;1.00
20574;DHT22;10445;50.216;7.912;2022-08-14T09:57:23;26.70;1.00
20574;DHT22;10445;50.216;7.912;2022-08-14T10:00:16;26.90;1.00
20574;DHT22;10445;50.216;7.912;2022-08-14T10:03:27;27.00;1.00
20574;DHT22;10445;50.216;7.912;2022-08-14T10:06:21;27.10;1.00
20574;DHT22;10445;50.216;7.912;2022-08-14T10:09:16;27.10;1.00
20574;DHT22;10445;50.216;7.912;2022-08-14T10:12:07;27.40;1.00
20574;DHT22;10445;50.216;7.912;2022-08-14T10:15:18;27.70;1.00
20574;DHT22;10445;50.216;7.912;2022-08-14T10:18:11;28.10;1.00
20574;DHT22;10445;50.216;7.912;2022-08-14T10:21:08;28.30;1.00
20574;DHT22;10445;50.216;7.912;2022-08-14T10:24:01;28.10;1.00
20574;DHT22;10445;50.216;7.912;2022-08-14T10:26:57;27.60;1.00
20574;DHT22;10445;50.216;7.912;2022-08-14T10:29:48;27.30;1.00
20574;DHT22;10445;50.216;7.912;2022-08-14T10:32:44;27.60;1.00
20574;DHT22;10445;50.216;7.912;2022-08-14T10:35:39;27.60;1.00
20574;DHT22;10445;50.216;7.912;2022-08-14T10:38:35;27.80;1.00
20574;DHT22;10445;50.216;7.912;2022-08-14T10:41:38;28.00;1.00
20574;DHT22;10445;50.216;7.912;2022-08-14T10:44:37;28.10;1.00
20574;DHT22;10445;50.216;7.912;2022-08-14T10:47:33;28.00;1.00
20574;DHT22;10445;50.216;7.912;2022-08-14T10:50:44;28.00;1.00
20574;DHT22;10445;50.216;7.912;2022-08-14T10:53:37;27.70;1.00
20574;DHT22;10445;50.216;7.912;2022-08-14T10:56:30;27.70;1.00
20574;DHT22;10445;50.216;7.912;2022-08-14T10:59:21;27.70;1.00
20574;DHT22;10445;50.216;7.912;2022-08-14T11:02:23;27.70;1.00
20574;DHT22;10445;50.216;7.912;2022-08-14T11:05:40;27.60;1.00
20574;DHT22;10445;50.216;7.912;2022-08-14T11:08:31;27.40;1.00
20574;DHT22;10445;50.216;7.912;2022-08-14T11:11:22;27.80;1.00
20574;DHT22;10445;50.216;7.912;2022-08-14T11:14:23;27.90;1.00
20574;DHT22;10445;50.216;7.912;2022-08-14T11:17:12;28.00;1.00
20574;DHT22;10445;50.216;7.912;2022-08-14T11:20:10;28.00;1.00
20574;DHT22;10445;50.216;7.912;2022-08-14T11:23:03;27.70;1.00
20574;DHT22;10445;50.216;7.912;2022-08-14T11:25:58;27.40;1.00
20574;DHT22;10445;50.216;7.912;2022-08-14T11:28:49;27.60;1.00
20574;DHT22;10445;50.216;7.912;2022-08-14T11:31:38;27.80;1.00
20574;DHT22;10445;50.216;7.912;2022-08-14T11:34:27;27.90;1.00
20574;DHT22;10445;50.216;7.912;2022-08-14T11:37:21;28.00;1.00
20574;DHT22;10445;50.216;7.912;2022-08-14T11:40:29;27.80;1.00
20574;DHT22;10445;50.216;7.912;2022-08-14T11:43:22;27.70;1.00
20574;DHT22;10445;50.216;7.912;2022-08-14T11:46:15;27.80;1.00
20574;DHT22;10445;50.216;7.912;2022-08-14T11:49:26;27.70;1.00
20574;DHT22;10445;50.216;7.912;2022-08-14T11:52:21;27.50;1.00
20574;DHT22;10445;50.216;7.912;2022-08-14T11:55:26;27.50;1.00
20574;DHT22;10445;50.216;7.912;2022-08-14T11:58:25;27.80;1.00
20574;DHT22;10445;50.216;7.912;2022-08-14T12:01:14;28.20;1.00
20574;DHT22;10445;50.216;7.912;2022-08-14T12:04:13;28.30;1.00
20574;DHT22;10445;50.216;7.912;2022-08-14T12:07:19;28.50;1.00
20574;DHT22;10445;50.216;7.912;2022-08-14T12:10:08;28.60;1.00
20574;DHT22;10445;50.216;7.912;2022-08-14T12:13:18;28.60;1.00
20574;DHT22;10445;50.216;7.912;2022-08-14T12:16:15;28.60;1.00
20574;DHT22;10445;50.216;7.912;2022-08-14T12:19:07;28.80;1.00
20574;DHT22;10445;50.216;7.912;2022-08-14T12:21:56;28.90;1.00
20574;DHT22;10445;50.216;7.912;2022-08-14T12:24:48;29.00;1.00
20574;DHT22;10445;50.216;7.912;2022-08-14T12:27:39;29.30;1.00
20574;DHT22;10445;50.216;7.912;2022-08-14T12:30:42;29.40;1.00
20574;DHT22;10445;50.216;7.912;2022-08-14T12:33:32;29.50;1.00
20574;DHT22;10445;50.216;7.912;2022-08-14T12:36:22;29.30;1.00
20574;DHT22;10445;50.216;7.912;2022-08-14T12:39:21;29.60;1.00
20574;DHT22;10445;50.216;7.912;2022-08-14T12:42:11;30.20;1.00
20574;DHT22;10445;50.216;7.912;2022-08-14T12:45:29;30.70;1.00
20574;DHT22;10445;50.216;7.912;2022-08-14T12:48:20;30.50;1.00
20574;DHT22;10445;50.216;7.912;2022-08-14T12:51:22;30.40;1.00
20574;DHT22;10445;50.216;7.912;2022-08-14T12:54:15;30.70;1.00
20574;DHT22;10445;50.216;7.912;2022-08-14T12:57:15;31.10;1.00
20574;DHT22;10445;50.216;7.912;2022-08-14T13:00:11;31.00;1.00
20574;DHT22;10445;50.216;7.912;2022-08-14T13:03:22;30.10;1.00
20574;DHT22;10445;50.216;7.912;2022-08-14T13:06:13;29.50;1.00
20574;DHT22;10445;50.216;7.912;2022-08-14T13:09:07;29.70;1.00
20574;DHT22;10445;50.216;7.912;2022-08-14T13:12:00;30.10;1.00
20574;DHT22;10445;50.216;7.912;2022-08-14T13:15:11;30.30;1.00
20574;DHT22;10445;50.216;7.912;2022-08-14T13:18:01;30.20;1.00
20574;DHT22;10445;50.216;7.912;2022-08-14T13:20:52;30.20;1.00
20574;DHT22;10445;50.216;7.912;2022-08-14T13:23:47;30.10;1.00
20574;DHT22;10445;50.216;7.912;2022-08-14T13:26:43;29.80;1.00
20574;DHT22;10445;50.216;7.912;2022-08-14T13:29:39;29.30;1.00
20574;DHT22;10445;50.216;7.912;2022-08-14T13:32:33;29.30;1.00
20574;DHT22;10445;50.216;7.912;2022-08-14T13:35:25;29.30;1.00
20574;DHT22;10445;50.216;7.912;2022-08-14T13:38:18;29.40;1.00
20574;DHT22;10445;50.216;7.912;2022-08-14T13:41:09;29.50;1.00
20574;DHT22;10445;50.216;7.912;2022-08-14T13:43:59;29.60;1.00
20574;DHT22;10445;50.216;7.912;2022-08-14T13:46:49;29.60;1.00
20574;DHT22;10445;50.216;7.912;2022-08-14T13:49:38;29.80;1.00
20574;DHT22;10445;50.216;7.912;2022-08-14T13:52:46;29.70;1.00
20574;DHT22;10445;50.216;7.912;2022-08-14T13:55:41;29.80;1.00
20574;DHT22;10445;50.216;7.912;2022-08-14T13:58:38;30.20;1.00
20574;DHT22;10445;50.216;7.912;2022-08-14T14:05:43;30.00;1.00
20574;DHT22;10445;50.216;7.912;2022-08-14T14:08:44;29.80;1.00
20574;DHT22;10445;50.216;7.912;2022-08-14T14:11:35;29.70;1.00
20574;DHT22;10445;50.216;7.912;2022-08-14T14:14:24;29.60;1.00
20574;DHT22;10445;50.216;7.912;2022-08-14T14:17:31;29.50;1.00
20574;DHT22;10445;50.216;7.912;2022-08-14T14:20:24;29.60;1.00
20574;DHT22;10445;50.216;7.912;2022-08-14T14:23:24;29.70;1.00
20574;DHT22;10445;50.216;7.912;2022-08-14T14:26:18;29.80;1.00
20574;DHT22;10445;50.216;7.912;2022-08-14T14:29:11;29.80;1.00
20574;DHT22;10445;50.216;7.912;2022-08-14T14:32:03;29.90;1.00
20574;DHT22;10445;50.216;7.912;2022-08-14T14:34:58;30.10;1.00
20574;DHT22;10445;50.216;7.912;2022-08-14T14:37:49;30.10;1.00
20574;DHT22;10445;50.216;7.912;2022-08-14T14:40:42;29.90;1.00
20574;DHT22;10445;50.216;7.912;2022-08-14T14:43:43;29.70;1.00
20574;DHT22;10445;50.216;7.912;2022-08-14T14:46:40;29.60;1.00
20574;DHT22;10445;50.216;7.912;2022-08-14T14:49:31;29.80;1.00
20574;DHT22;10445;50.216;7.912;2022-08-14T14:52:40;29.70;1.00
20574;DHT22;10445;50.216;7.912;2022-08-14T14:55:29;29.50;1.00
20574;DHT22;10445;50.216;7.912;2022-08-14T14:58:41;29.30;1.00
20574;DHT22;10445;50.216;7.912;2022-08-14T15:01:34;29.30;1.00
20574;DHT22;10445;50.216;7.912;2022-08-14T15:04:25;29.20;1.00
20574;DHT22;10445;50.216;7.912;2022-08-14T15:07:14;29.10;1.00
20574;DHT22;10445;50.216;7.912;2022-08-14T15:10:05;29.10;1.00
20574;DHT22;10445;50.216;7.912;2022-08-14T15:13:14;29.10;1.00
20574;DHT22;10445;50.216;7.912;2022-08-14T15:16:05;29.00;1.00
20574;DHT22;10445;50.216;7.912;2022-08-14T15:18:55;28.80;1.00
20574;DHT22;10445;50.216;7.912;2022-08-14T15:21:44;28.80;1.00
20574;DHT22;10445;50.216;7.912;2022-08-14T15:24:34;28.70;1.00
20574;DHT22;10445;50.216;7.912;2022-08-14T15:27:26;28.60;1.00
20574;DHT22;10445;50.216;7.912;2022-08-14T15:30:16;28.60;1.00
20574;DHT22;10445;50.216;7.912;2022-08-14T15:33:12;28.60;1.00
20574;DHT22;10445;50.216;7.912;2022-08-14T15:36:01;28.50;1.00
20574;DHT22;10445;50.216;7.912;2022-08-14T15:39:03;28.50;1.00
20574;DHT22;10445;50.216;7.912;2022-08-14T15:41:52;28.40;1.00
20574;DHT22;10445;50.216;7.912;2022-08-14T15:44:45;28.40;1.00
20574;DHT22;10445;50.216;7.912;2022-08-14T15:47:47;28.50;1.00
20574;DHT22;10445;50.216;7.912;2022-08-14T15:50:39;28.50;1.00
20574;DHT22;10445;50.216;7.912;2022-08-14T15:53:35;28.60;1.00
20574;DHT22;10445;50.216;7.912;2022-08-14T15:56:25;28.70;1.00
20574;DHT22;10445;50.216;7.912;2022-08-14T15:59:29;28.70;1.00
20574;DHT22;10445;50.216;7.912;2022-08-14T16:02:40;28.80;1.00
20574;DHT22;10445;50.216;7.912;2022-08-14T16:05:28;28.90;1.00
20574;DHT22;10445;50.216;7.912;2022-08-14T16:08:26;28.80;1.00
20574;DHT22;10445;50.216;7.912;2022-08-14T16:11:17;28.50;1.00
20574;DHT22;10445;50.216;7.912;2022-08-14T16:14:05;28.40;1.00
20574;DHT22;10445;50.216;7.912;2022-08-14T16:16:54;28.40;1.00
20574;DHT22;10445;50.216;7.912;2022-08-14T16:19:49;28.30;1.00
20574;DHT22;10445;50.216;7.912;2022-08-14T16:22:39;28.20;1.00
20574;DHT22;10445;50.216;7.912;2022-08-14T16:25:47;28.20;1.00
20574;DHT22;10445;50.216;7.912;2022-08-14T16:28:39;28.10;1.00
20574;DHT22;10445;50.216;7.912;2022-08-14T16:31:29;28.00;1.00
20574;DHT22;10445;50.216;7.912;2022-08-14T16:34:22;28.00;1.00
20574;DHT22;10445;50.216;7.912;2022-08-14T16:37:32;27.90;1.00
20574;DHT22;10445;50.216;7.912;2022-08-14T16:40:30;27.90;1.00
20574;DHT22;10445;50.216;7.912;2022-08-14T16:43:20;27.80;1.00
20574;DHT22;10445;50.216;7.912;2022-08-14T16:46:15;27.60;1.00
20574;DHT22;10445;50.216;7.912;2022-08-14T16:49:10;27.50;1.00
20574;DHT22;10445;50.216;7.912;2022-08-14T16:52:01;27.50;1.00
20574;DHT22;10445;50.216;7.912;2022-08-14T16:55:11;27.40;1.00
20574;DHT22;10445;50.216;7.912;2022-08-14T16:58:04;27.30;1.00
20574;DHT22;10445;50.216;7.912;2022-08-14T17:01:12;27.30;1.00
20574;DHT22;10445;50.216;7.912;2022-08-14T17:04:13;27.30;1.00
20574;DHT22;10445;50.216;7.912;2022-08-14T17:07:12;27.20;1.00
20574;DHT22;10445;50.216;7.912;2022-08-14T17:10:04;27.20;1.00
20574;DHT22;10445;50.216;7.912;2022-08-14T17:13:16;27.10;1.00
20574;DHT22;10445;50.216;7.912;2022-08-14T17:16:09;27.10;1.00
20574;DHT22;10445;50.216;7.912;2022-08-14T17:19:12;27.00;1.00
20574;DHT22;10445;50.216;7.912;2022-08-14T17:22:09;27.00;1.00
20574;DHT22;10445;50.216;7.912;2022-08-14T17:25:00;27.00;1.00
20574;DHT22;10445;50.216;7.912;2022-08-14T17:28:09;26.90;1.00
20574;DHT22;10445;50.216;7.912;2022-08-14T17:31:20;26.90;1.00
20574;DHT22;10445;50.216;7.912;2022-08-14T17:34:46;26.80;1.00
20574;DHT22;10445;50.216;7.912;2022-08-14T17:37:38;26.80;1.00
20574;DHT22;10445;50.216;7.912;2022-08-14T17:40:31;26.70;1.00
20574;DHT22;10445;50.216;7.912;2022-08-14T17:43:28;26.70;1.00
20574;DHT22;10445;50.216;7.912;2022-08-14T17:46:37;26.60;1.00
20574;DHT22;10445;50.216;7.912;2022-08-14T17:49:31;26.50;1.00
20574;DHT22;10445;50.216;7.912;2022-08-14T17:52:21;26.40;1.00
20574;DHT22;10445;50.216;7.912;2022-08-14T17:55:22;26.30;1.00
20574;DHT22;10445;50.216;7.912;2022-08-14T17:58:31;26.20;1.00
20574;DHT22;10445;50.216;7.912;2022-08-14T18:01:28;26.10;1.00
20574;DHT22;10445;50.216;7.912;2022-08-14T18:04:20;26.00;1.00
20574;DHT22;10445;50.216;7.912;2022-08-14T18:07:17;25.90;1.00
20574;DHT22;10445;50.216;7.912;2022-08-14T18:10:29;25.80;1.00
20574;DHT22;10445;50.216;7.912;2022-08-14T18:13:39;25.70;1.00
20574;DHT22;10445;50.216;7.912;2022-08-14T18:16:40;25.60;1.00
20574;DHT22;10445;50.216;7.912;2022-08-14T18:19:36;25.50;1.00
20574;DHT22;10445;50.216;7.912;2022-08-14T18:22:27;25.40;1.00
20574;DHT22;10445;50.216;7.912;2022-08-14T18:25:26;25.20;1.00
20574;DHT22;10445;50.216;7.912;2022-08-14T18:28:17;25.20;1.00
20574;DHT22;10445;50.216;7.912;2022-08-14T18:31:31;25.10;1.00
20574;DHT22;10445;50.216;7.912;2022-08-14T18:34:36;24.90;1.00
20574;DHT22;10445;50.216;7.912;2022-08-14T18:37:37;24.80;1.00
20574;DHT22;10445;50.216;7.912;2022-08-14T18:40:28;24.70;1.00
20574;DHT22;10445;50.216;7.912;2022-08-14T18:43:41;24.60;1.00
20574;DHT22;10445;50.216;7.912;2022-08-14T18:47:19;24.50;1.00
20574;DHT22;10445;50.216;7.912;2022-08-14T18:50:11;24.50;1.00
20574;DHT22;10445;50.216;7.912;2022-08-14T18:53:17;24.40;1.00